Time;durP1;ratioP1;P1;durP2;ratioP2;P2;SDS_P1;SDS_P2;PMS_P1;PMS_P2;Temp;Humidity;BMP_temperature;BMP_pressure;BME280_temperature;BME280_humidity;BME280_pressure;Samples;Min_cycle;Max_cycle;Signal;HPM_P1;HPM_P2
2024/02/15 00:00:22;;;;;;;1.90;1.80;;;;;;;;;;1290363;23;20006;-77
2024/02/15 00:00:53;;;;;;;0.98;0.98;;;;;;;;;;1285225;23;20488;-77
2024/02/15 00:01:23;;;;;;;1.73;1.63;;;;;;;;;;1290761;23;20008;-77
2024/02/15 00:01:54;;;;;;;1.85;1.60;;;;;;;;;;1291387;22;20011;-77
2024/02/15 00:02:24;;;;;;;34.03;4.82;;;;;;;;;;1296930;22;20094;-77
2024/02/15 00:02:56;;;;;;;1.13;0.85;;;;;;;;;;1297320;22;20046;-77
2024/02/15 00:03:26;;;;;;;1.95;1.45;;;;;;;;;;1290515;23;20000;-77
2024/02/15 00:03:57;;;;;;;3.28;1.83;;;;;;;;;;1291027;23;20317;-77
2024/02/15 00:04:27;;;;;;;5.13;1.52;;;;;;;;;;1290460;23;20024;-77
2024/02/15 00:04:58;;;;;;;0.95;0.88;;;;;;;;;;1291324;22;19996;-77
2024/02/15 00:05:28;;;;;;;2.63;2.42;;;;;;;;;;1297299;22;20599;-77
2024/02/15 00:05:59;;;;;;;6.63;1.95;;;;;;;;;;1297541;22;20007;-77
2024/02/15 00:06:29;;;;;;;0.90;0.90;;;;;;;;;;1296855;22;20504;-77
2024/02/15 00:07:00;;;;;;;7.45;3.83;;;;;;;;;;1290981;23;20008;-77
2024/02/15 00:07:30;;;;;;;2.70;2.50;;;;;;;;;;1290409;22;20309;-77
2024/02/15 00:08:01;;;;;;;2.53;2.33;;;;;;;;;;1291025;22;20004;-77
2024/02/15 00:08:32;;;;;;;3.05;2.83;;;;;;;;;;1297307;22;21114;-77
2024/02/15 00:09:03;;;;;;;1.73;1.63;;;;;;;;;;1303970;22;20428;-77
2024/02/15 00:09:34;;;;;;;1.20;1.17;;;;;;;;;;1303742;22;19995;-77
2024/02/15 00:10:04;;;;;;;3.03;2.35;;;;;;;;;;1303999;22;20030;-77
2024/02/15 00:10:35;;;;;;;9.02;2.28;;;;;;;;;;1303622;22;20002;-77
2024/02/15 00:11:05;;;;;;;2.17;2.08;;;;;;;;;;1303966;22;20014;-77
2024/02/15 00:11:36;;;;;;;3.38;2.72;;;;;;;;;;1296846;22;20082;-77
2024/02/15 00:12:07;;;;;;;3.40;2.20;;;;;;;;;;1297197;22;20416;-77
2024/02/15 00:12:38;;;;;;;6.13;2.97;;;;;;;;;;1290578;23;20012;-77
2024/02/15 00:13:08;;;;;;;2.88;2.55;;;;;;;;;;1284682;23;20453;-77
2024/02/15 00:13:39;;;;;;;14.52;2.60;;;;;;;;;;1284456;23;20004;-77
2024/02/15 00:14:10;;;;;;;1.42;1.05;;;;;;;;;;1285654;23;20003;-77
2024/02/15 00:14:40;;;;;;;2.83;2.22;;;;;;;;;;1291179;22;20000;-77
2024/02/15 00:15:11;;;;;;;4.47;2.85;;;;;;;;;;1297401;22;20004;-77
2024/02/15 00:15:41;;;;;;;10.13;2.17;;;;;;;;;;1297051;22;20029;-77
2024/02/15 00:16:15;;;;;;;3.42;1.17;;;;;;;;;;1297164;22;20018;-77
2024/02/15 00:16:45;;;;;;;5.57;2.85;;;;;;;;;;1297405;22;20008;-77
2024/02/15 00:17:16;;;;;;;1.98;1.15;;;;;;;;;;1297967;22;20069;-77
2024/02/15 00:17:46;;;;;;;2.97;2.67;;;;;;;;;;1303972;22;20316;-77
2024/02/15 00:18:17;;;;;;;2.17;2.05;;;;;;;;;;1303833;22;20018;-77
2024/02/15 00:18:48;;;;;;;2.40;1.75;;;;;;;;;;1297337;22;20363;-77
2024/02/15 00:19:19;;;;;;;4.80;3.13;;;;;;;;;;1290446;23;20062;-77
2024/02/15 00:19:49;;;;;;;1.02;1.02;;;;;;;;;;1291068;23;20145;-77
2024/02/15 00:20:20;;;;;;;5.93;2.40;;;;;;;;;;1284526;23;20015;-77
2024/02/15 00:20:50;;;;;;;2.83;2.13;;;;;;;;;;1284996;23;20078;-77
2024/02/15 00:21:22;;;;;;;4.22;2.08;;;;;;;;;;1283962;23;20006;-77
2024/02/15 00:21:55;;;;;;;3.45;2.10;;;;;;;;;;1285069;23;20350;-77
2024/02/15 00:22:25;;;;;;;3.72;2.40;;;;;;;;;;1291260;22;20332;-77
2024/02/15 00:22:56;;;;;;;2.90;2.70;;;;;;;;;;1298517;22;20031;-77
2024/02/15 00:23:26;;;;;;;2.10;1.95;;;;;;;;;;1296968;22;20004;-77
2024/02/15 00:23:59;;;;;;;2.72;2.22;;;;;;;;;;1297246;22;20014;-77
2024/02/15 00:24:30;;;;;;;2.97;2.10;;;;;;;;;;1297272;22;20091;-77
2024/02/15 00:25:01;;;;;;;1.80;1.58;;;;;;;;;;1291482;22;20015;-77
2024/02/15 00:25:32;;;;;;;3.13;2.92;;;;;;;;;;1297014;22;20004;-77
2024/02/15 00:26:02;;;;;;;5.88;2.13;;;;;;;;;;1297295;22;19999;-77
2024/02/15 00:26:33;;;;;;;8.35;1.95;;;;;;;;;;1290584;22;20004;-77
2024/02/15 00:27:04;;;;;;;2.38;1.55;;;;;;;;;;1290850;23;20015;-77
2024/02/15 00:27:35;;;;;;;6.97;3.22;;;;;;;;;;1290720;23;20004;-77
2024/02/15 00:28:05;;;;;;;8.30;3.15;;;;;;;;;;1291441;22;20561;-77
2024/02/15 00:28:36;;;;;;;2.25;1.67;;;;;;;;;;1290872;22;20098;-77
2024/02/15 00:29:06;;;;;;;8.40;2.75;;;;;;;;;;1297360;22;20038;-77
2024/02/15 00:29:37;;;;;;;3.55;3.25;;;;;;;;;;1297107;22;20077;-77
2024/02/15 00:30:08;;;;;;;1.65;1.55;;;;;;;;;;1290803;22;20008;-77
2024/02/15 00:30:39;;;;;;;1.80;1.63;;;;;;;;;;1290786;23;20004;-78
2024/02/15 00:31:09;;;;;;;12.98;5.93;;;;;;;;;;1290701;23;20557;-77
2024/02/15 00:31:39;;;;;;;24.67;3.78;;;;;;;;;;1284475;23;20012;-77
2024/02/15 00:32:10;;;;;;;17.58;4.72;;;;;;;;;;1291148;22;20008;-77
2024/02/15 00:32:40;;;;;;;4.20;3.20;;;;;;;;;;1297157;22;20614;-77
2024/02/15 00:33:11;;;;;;;6.25;3.88;;;;;;;;;;1297173;22;20008;-77
2024/02/15 00:33:41;;;;;;;2.53;2.33;;;;;;;;;;1303446;22;20482;-77
2024/02/15 00:34:12;;;;;;;10.07;4.53;;;;;;;;;;1303389;22;20007;-77
2024/02/15 00:34:42;;;;;;;1.58;1.48;;;;;;;;;;1303800;22;19999;-77
2024/02/15 00:35:13;;;;;;;6.10;3.28;;;;;;;;;;1303409;22;20026;-77
2024/02/15 00:35:43;;;;;;;3.15;1.38;;;;;;;;;;1303958;22;20031;-77
2024/02/15 00:36:14;;;;;;;6.28;3.00;;;;;;;;;;1303705;22;20006;-77
2024/02/15 00:36:44;;;;;;;2.40;2.30;;;;;;;;;;1304053;22;20031;-77
2024/02/15 00:37:15;;;;;;;2.40;2.20;;;;;;;;;;1296573;22;20003;-77
2024/02/15 00:37:45;;;;;;;1.25;0.93;;;;;;;;;;1290869;23;20004;-77
2024/02/15 00:38:16;;;;;;;4.13;2.20;;;;;;;;;;1284328;23;20015;-77
2024/02/15 00:38:46;;;;;;;5.10;1.85;;;;;;;;;;1284811;23;20007;-77
2024/02/15 00:39:18;;;;;;;4.03;3.70;;;;;;;;;;1290623;22;20004;-77
2024/02/15 00:39:48;;;;;;;11.10;3.38;;;;;;;;;;1297501;22;20337;-77
2024/02/15 00:40:19;;;;;;;8.25;4.57;;;;;;;;;;1296864;22;20059;-77
2024/02/15 00:40:50;;;;;;;5.82;3.20;;;;;;;;;;1297451;22;20042;-77
2024/02/15 00:41:21;;;;;;;8.20;2.55;;;;;;;;;;1296666;22;20003;-77
2024/02/15 00:41:51;;;;;;;12.38;1.85;;;;;;;;;;1297667;22;20459;-77
2024/02/15 00:42:22;;;;;;;3.97;3.05;;;;;;;;;;1296718;22;20008;-77
2024/02/15 00:42:52;;;;;;;2.60;2.28;;;;;;;;;;1297427;22;20011;-77
2024/02/15 00:43:23;;;;;;;4.97;2.92;;;;;;;;;;1290353;23;20011;-77
2024/02/15 00:43:53;;;;;;;9.93;3.95;;;;;;;;;;1284879;23;20384;-77
2024/02/15 00:44:24;;;;;;;4.20;2.92;;;;;;;;;;1290768;23;20491;-78
2024/02/15 00:44:54;;;;;;;2.45;2.25;;;;;;;;;;1291503;22;20012;-78
2024/02/15 00:45:25;;;;;;;1.52;1.42;;;;;;;;;;1297193;22;20344;-78
2024/02/15 00:45:56;;;;;;;3.97;3.45;;;;;;;;;;1304121;22;20010;-78
2024/02/15 00:46:29;;;;;;;4.75;3.85;;;;;;;;;;1295611;22;20094;-78
2024/02/15 00:46:59;;;;;;;6.15;1.80;;;;;;;;;;1296820;22;20380;-77
2024/02/15 00:47:29;;;;;;;4.78;1.85;;;;;;;;;;1296878;22;20004;-77
2024/02/15 00:48:00;;;;;;;7.03;2.88;;;;;;;;;;1297583;22;20107;-77
2024/02/15 00:48:30;;;;;;;3.85;1.33;;;;;;;;;;1296807;22;20374;-77
2024/02/15 00:49:01;;;;;;;2.25;2.03;;;;;;;;;;1297346;22;20087;-77
2024/02/15 00:49:32;;;;;;;6.38;2.00;;;;;;;;;;1290559;23;20012;-77
2024/02/15 00:50:03;;;;;;;2.30;2.08;;;;;;;;;;1290743;22;20083;-77
2024/02/15 00:50:33;;;;;;;1.95;1.83;;;;;;;;;;1297034;22;20485;-77
2024/02/15 00:51:04;;;;;;;2.55;2.35;;;;;;;;;;1297336;22;20034;-77
2024/02/15 00:51:35;;;;;;;8.52;2.33;;;;;;;;;;1303938;22;20085;-77
2024/02/15 00:52:05;;;;;;;3.33;2.67;;;;;;;;;;1296784;22;20007;-77
2024/02/15 00:52:36;;;;;;;5.97;3.60;;;;;;;;;;1297020;22;20007;-77
2024/02/15 00:53:06;;;;;;;1.30;1.27;;;;;;;;;;1296941;22;20015;-77
2024/02/15 00:53:37;;;;;;;4.05;3.67;;;;;;;;;;1290887;22;20012;-77
2024/02/15 00:54:07;;;;;;;2.35;1.58;;;;;;;;;;1297436;22;20313;-77
2024/02/15 00:54:38;;;;;;;4.63;1.42;;;;;;;;;;1297172;22;20030;-77
2024/02/15 00:55:08;;;;;;;9.77;1.67;;;;;;;;;;1297209;22;20078;-77
2024/02/15 00:55:39;;;;;;;2.95;2.63;;;;;;;;;;1295476;22;20061;-77
2024/02/15 00:56:09;;;;;;;2.83;2.63;;;;;;;;;;1290529;23;20007;-77
2024/02/15 00:56:40;;;;;;;5.30;2.33;;;;;;;;;;1284205;23;20008;-78
2024/02/15 00:57:11;;;;;;;8.75;3.65;;;;;;;;;;1284055;23;20078;-78
2024/02/15 00:57:41;;;;;;;6.05;2.83;;;;;;;;;;1284710;23;20011;-78
2024/02/15 00:58:12;;;;;;;7.82;2.22;;;;;;;;;;1284430;23;20512;-78
2024/02/15 00:58:42;;;;;;;2.65;2.45;;;;;;;;;;1290597;23;20448;-78
2024/02/15 00:59:12;;;;;;;0.73;0.73;;;;;;;;;;1290268;22;20050;-78
2024/02/15 00:59:43;;;;;;;4.43;4.07;;;;;;;;;;1297346;22;20462;-78
2024/02/15 01:00:14;;;;;;;19.27;3.65;;;;;;;;;;1303126;22;20007;-78
2024/02/15 01:00:45;;;;;;;7.43;2.92;;;;;;;;;;1303515;22;20055;-78
2024/02/15 01:01:15;;;;;;;9.65;6.18;;;;;;;;;;1303478;22;20094;-78
2024/02/15 01:01:47;;;;;;;6.18;3.35;;;;;;;;;;1304022;22;20029;-78
2024/02/15 01:02:18;;;;;;;0.85;0.80;;;;;;;;;;1303719;22;20398;-77
2024/02/15 01:02:49;;;;;;;4.05;3.72;;;;;;;;;;1303783;22;20003;-77
2024/02/15 01:03:19;;;;;;;4.13;2.88;;;;;;;;;;1296435;22;20061;-77
2024/02/15 01:03:50;;;;;;;11.65;4.72;;;;;;;;;;1297052;22;20050;-77
2024/02/15 01:04:20;;;;;;;4.70;2.70;;;;;;;;;;1296931;22;20082;-77
2024/02/15 01:04:53;;;;;;;23.05;5.80;;;;;;;;;;1297183;22;20382;-77
2024/02/15 01:05:24;;;;;;;6.00;3.70;;;;;;;;;;1303688;22;20007;-77
2024/02/15 01:05:54;;;;;;;10.10;4.53;;;;;;;;;;1303961;22;20010;-77
2024/02/15 01:06:25;;;;;;;11.05;4.30;;;;;;;;;;1296809;22;20030;-77
2024/02/15 01:06:55;;;;;;;7.35;5.13;;;;;;;;;;1296883;22;20094;-77
2024/02/15 01:07:27;;;;;;;13.45;7.70;;;;;;;;;;1296520;22;20010;-78
2024/02/15 01:07:57;;;;;;;8.68;6.25;;;;;;;;;;1288865;22;19991;-78
2024/02/15 01:08:28;;;;;;;22.50;9.32;;;;;;;;;;1289758;23;20527;-78
2024/02/15 01:09:01;;;;;;;28.73;10.75;;;;;;;;;;1289877;23;20031;-78
2024/02/15 01:09:31;;;;;;;9.90;5.10;;;;;;;;;;1284049;23;20611;-78
2024/02/15 01:10:03;;;;;;;15.20;7.82;;;;;;;;;;1284485;23;20005;-78
2024/02/15 01:10:33;;;;;;;8.48;5.18;;;;;;;;;;1283979;23;20401;-78
2024/02/15 01:11:04;;;;;;;10.13;5.22;;;;;;;;;;1284116;23;20004;-78
2024/02/15 01:11:37;;;;;;;10.05;5.43;;;;;;;;;;1288600;22;20058;-78
2024/02/15 01:12:07;;;;;;;7.85;5.25;;;;;;;;;;1296499;22;20482;-78
2024/02/15 01:12:38;;;;;;;7.53;3.55;;;;;;;;;;1296268;22;20008;-78
2024/02/15 01:13:09;;;;;;;6.35;3.10;;;;;;;;;;1290741;22;20008;-78
2024/02/15 01:13:40;;;;;;;10.02;3.47;;;;;;;;;;1288794;23;20000;-78
2024/02/15 01:14:10;;;;;;;11.48;3.33;;;;;;;;;;1282473;23;20031;-78
2024/02/15 01:14:41;;;;;;;2.42;2.05;;;;;;;;;;1282917;23;20058;-78
2024/02/15 01:15:11;;;;;;;2.40;2.20;;;;;;;;;;1283537;23;20023;-78
2024/02/15 01:15:42;;;;;;;6.15;3.25;;;;;;;;;;1283596;23;20004;-78
2024/02/15 01:16:12;;;;;;;13.20;3.15;;;;;;;;;;1290065;22;20079;-78
2024/02/15 01:16:44;;;;;;;4.18;3.13;;;;;;;;;;1296226;22;20439;-78
2024/02/15 01:17:15;;;;;;;3.90;2.28;;;;;;;;;;1289186;22;20100;-78
2024/02/15 01:17:46;;;;;;;0.98;0.98;;;;;;;;;;1295861;22;20082;-78
2024/02/15 01:18:16;;;;;;;1.30;1.23;;;;;;;;;;1295982;22;20467;-78
2024/02/15 01:18:47;;;;;;;1.33;1.17;;;;;;;;;;1290431;22;20004;-78
2024/02/15 01:19:17;;;;;;;4.40;2.72;;;;;;;;;;1296045;22;20015;-78
2024/02/15 01:19:48;;;;;;;4.30;3.80;;;;;;;;;;1295537;22;19999;-78
2024/02/15 01:20:20;;;;;;;3.78;3.30;;;;;;;;;;1295979;22;20041;-78
2024/02/15 01:20:52;;;;;;;1.70;1.60;;;;;;;;;;1302413;22;20011;-78
2024/02/15 01:21:22;;;;;;;2.65;2.45;;;;;;;;;;1302356;22;20033;-78
2024/02/15 01:21:53;;;;;;;11.32;2.28;;;;;;;;;;1295531;22;20030;-78
2024/02/15 01:22:26;;;;;;;6.85;4.35;;;;;;;;;;1295865;22;20004;-78
2024/02/15 01:22:57;;;;;;;3.78;1.23;;;;;;;;;;1295802;22;20333;-78
2024/02/15 01:23:27;;;;;;;12.85;3.35;;;;;;;;;;1295086;22;20023;-78
2024/02/15 01:24:00;;;;;;;5.28;2.63;;;;;;;;;;1297043;22;20033;-78
2024/02/15 01:24:30;;;;;;;7.25;4.88;;;;;;;;;;1303136;22;20014;-77
2024/02/15 01:25:01;;;;;;;2.83;2.40;;;;;;;;;;1295195;22;20010;-77
2024/02/15 01:25:31;;;;;;;10.80;3.50;;;;;;;;;;1295767;22;20014;-78
2024/02/15 01:26:02;;;;;;;3.70;2.92;;;;;;;;;;1295340;22;20030;-77
2024/02/15 01:26:33;;;;;;;3.58;3.28;;;;;;;;;;1294701;22;20094;-77
2024/02/15 01:27:03;;;;;;;7.63;5.40;;;;;;;;;;1302142;22;20133;-77
2024/02/15 01:27:34;;;;;;;4.80;2.92;;;;;;;;;;1295372;22;20145;-77
2024/02/15 01:28:04;;;;;;;4.00;2.95;;;;;;;;;;1295456;22;20035;-77
2024/02/15 01:28:35;;;;;;;3.70;2.10;;;;;;;;;;1288730;23;20082;-77
2024/02/15 01:29:06;;;;;;;1.58;1.05;;;;;;;;;;1288897;23;20000;-77
2024/02/15 01:29:37;;;;;;;5.43;3.45;;;;;;;;;;1289350;23;20465;-77
2024/02/15 01:30:08;;;;;;;13.85;4.03;;;;;;;;;;1289435;22;20011;-77
2024/02/15 01:30:38;;;;;;;2.88;1.95;;;;;;;;;;1296677;22;20026;-77
2024/02/15 01:31:11;;;;;;;7.47;3.20;;;;;;;;;;1294882;22;20035;-77
2024/02/15 01:31:42;;;;;;;2.40;1.42;;;;;;;;;;1288759;23;19996;-77
2024/02/15 01:32:12;;;;;;;1.50;1.42;;;;;;;;;;1289013;22;19996;-77
2024/02/15 01:32:43;;;;;;;2.20;1.65;;;;;;;;;;1283837;23;20059;-77
2024/02/15 01:33:14;;;;;;;4.72;2.50;;;;;;;;;;1288698;22;20437;-77
2024/02/15 01:33:47;;;;;;;5.30;3.58;;;;;;;;;;1288154;23;20004;-77
2024/02/15 01:34:18;;;;;;;2.95;1.80;;;;;;;;;;1290359;22;20016;-77
2024/02/15 01:34:51;;;;;;;25.08;5.60;;;;;;;;;;1295628;22;20094;-77
2024/02/15 01:35:21;;;;;;;4.85;3.83;;;;;;;;;;1295182;22;20004;-77
2024/02/15 01:35:52;;;;;;;2.33;2.20;;;;;;;;;;1293682;22;20037;-77
2024/02/15 01:36:22;;;;;;;2.25;1.77;;;;;;;;;;1294419;22;20554;-76
2024/02/15 01:36:53;;;;;;;2.38;2.17;;;;;;;;;;1294383;22;20373;-76
2024/02/15 01:37:23;;;;;;;8.13;3.47;;;;;;;;;;1293519;22;20845;-76
2024/02/15 01:37:54;;;;;;;5.82;3.95;;;;;;;;;;1295852;22;20339;-77
2024/02/15 01:38:24;;;;;;;21.70;4.60;;;;;;;;;;1296588;22;20004;-77
2024/02/15 01:38:55;;;;;;;8.10;4.07;;;;;;;;;;1295738;22;20012;-77
2024/02/15 01:39:25;;;;;;;2.90;2.42;;;;;;;;;;1289562;22;20062;-77
2024/02/15 01:39:56;;;;;;;9.20;4.32;;;;;;;;;;1295473;22;20482;-77
2024/02/15 01:40:26;;;;;;;2.15;1.95;;;;;;;;;;1295839;22;20455;-76
2024/02/15 01:40:57;;;;;;;1.88;1.67;;;;;;;;;;1296525;22;19999;-79
2024/02/15 01:41:27;;;;;;;4.25;2.50;;;;;;;;;;1301711;22;20022;-78
2024/02/15 01:41:58;;;;;;;2.55;2.20;;;;;;;;;;1295463;22;19995;-78
2024/02/15 01:42:29;;;;;;;3.42;2.08;;;;;;;;;;1289412;22;20027;-77
2024/02/15 01:43:00;;;;;;;1.30;1.20;;;;;;;;;;1289708;23;20030;-77
2024/02/15 01:43:31;;;;;;;3.20;2.92;;;;;;;;;;1289814;22;20011;-77
2024/02/15 01:44:01;;;;;;;5.18;4.40;;;;;;;;;;1289300;22;20467;-77
2024/02/15 01:44:32;;;;;;;4.53;3.05;;;;;;;;;;1295822;22;20027;-77
2024/02/15 01:45:02;;;;;;;2.28;1.95;;;;;;;;;;1289009;23;20336;-77
2024/02/15 01:45:35;;;;;;;3.28;0.90;;;;;;;;;;1289686;22;20042;-77
2024/02/15 01:46:09;;;;;;;2.70;1.63;;;;;;;;;;1289237;23;20011;-77
2024/02/15 01:46:40;;;;;;;3.45;2.38;;;;;;;;;;1283283;23;20484;-77
2024/02/15 01:47:11;;;;;;;2.55;2.03;;;;;;;;;;1289068;22;20034;-77
2024/02/15 01:47:42;;;;;;;2.35;2.00;;;;;;;;;;1283697;23;20026;-77
2024/02/15 01:48:14;;;;;;;1.88;1.42;;;;;;;;;;1289594;22;20008;-77
2024/02/15 01:48:45;;;;;;;2.03;1.50;;;;;;;;;;1296354;22;20000;-78
2024/02/15 01:49:16;;;;;;;2.00;1.55;;;;;;;;;;1294230;22;20008;-76
2024/02/15 01:49:48;;;;;;;2.75;1.25;;;;;;;;;;1301730;22;20003;-77
2024/02/15 01:50:21;;;;;;;2.22;2.03;;;;;;;;;;1301677;22;20003;-77
2024/02/15 01:50:53;;;;;;;23.52;2.05;;;;;;;;;;1302261;22;20006;-78
2024/02/15 01:51:24;;;;;;;4.68;1.70;;;;;;;;;;1301443;22;20007;-78
2024/02/15 01:51:56;;;;;;;5.75;5.25;;;;;;;;;;1301722;22;20090;-77
2024/02/15 01:52:27;;;;;;;19.17;6.32;;;;;;;;;;1294750;22;20011;-77
2024/02/15 01:52:59;;;;;;;4.13;3.67;;;;;;;;;;1295788;22;19991;-77
2024/02/15 01:53:30;;;;;;;5.18;2.72;;;;;;;;;;1295410;22;20029;-77
2024/02/15 01:54:01;;;;;;;7.60;6.05;;;;;;;;;;1289662;22;20118;-77
2024/02/15 01:54:32;;;;;;;1.63;1.35;;;;;;;;;;1295850;22;20421;-77
2024/02/15 01:55:07;;;;;;;7.10;4.13;;;;;;;;;;1295474;22;20004;-77
2024/02/15 01:55:39;;;;;;;7.35;3.28;;;;;;;;;;1290699;22;20444;-77
2024/02/15 01:56:11;;;;;;;7.07;4.30;;;;;;;;;;1289398;23;20015;-77
2024/02/15 01:56:43;;;;;;;6.63;3.28;;;;;;;;;;1288961;23;20043;-77
2024/02/15 01:57:13;;;;;;;2.22;2.08;;;;;;;;;;1289292;22;20042;-77
2024/02/15 01:57:47;;;;;;;5.80;3.33;;;;;;;;;;1296422;22;20014;-77
2024/02/15 01:58:18;;;;;;;4.95;3.75;;;;;;;;;;1302866;22;20014;-77
2024/02/15 01:58:49;;;;;;;6.05;2.50;;;;;;;;;;1295746;22;20007;-77
2024/02/15 01:59:22;;;;;;;8.57;3.65;;;;;;;;;;1288939;23;20472;-77
2024/02/15 01:59:53;;;;;;;8.27;4.05;;;;;;;;;;1283077;23;20039;-77
2024/02/15 02:00:24;;;;;;;3.75;3.45;;;;;;;;;;1284149;23;20035;-77
2024/02/15 02:00:56;;;;;;;1.73;1.63;;;;;;;;;;1290582;22;20424;-78
2024/02/15 02:01:27;;;;;;;2.05;1.90;;;;;;;;;;1292713;22;20008;-77
2024/02/15 02:01:58;;;;;;;5.78;2.10;;;;;;;;;;1295000;22;20031;-77
2024/02/15 02:02:31;;;;;;;2.17;1.70;;;;;;;;;;1295100;22;20011;-77
2024/02/15 02:03:02;;;;;;;2.55;2.35;;;;;;;;;;1295075;22;20522;-77
2024/02/15 02:03:33;;;;;;;3.55;1.90;;;;;;;;;;1296510;22;20003;-77
2024/02/15 02:04:03;;;;;;;13.05;6.05;;;;;;;;;;1302090;22;20407;-77
2024/02/15 02:04:34;;;;;;;11.30;3.65;;;;;;;;;;1295156;22;20004;-77
2024/02/15 02:05:04;;;;;;;7.38;3.15;;;;;;;;;;1295556;22;20109;-77
2024/02/15 02:05:35;;;;;;;8.80;5.07;;;;;;;;;;1294148;22;20033;-77
2024/02/15 02:06:06;;;;;;;5.07;4.15;;;;;;;;;;1289348;22;20103;-77
2024/02/15 02:06:39;;;;;;;4.03;2.13;;;;;;;;;;1294379;22;20008;-77
2024/02/15 02:07:09;;;;;;;5.25;2.97;;;;;;;;;;1293917;22;20008;-77
2024/02/15 02:07:40;;;;;;;1.65;1.33;;;;;;;;;;1296055;22;20012;-77
2024/02/15 02:08:10;;;;;;;11.57;3.38;;;;;;;;;;1302773;22;20006;-77
2024/02/15 02:08:40;;;;;;;8.35;5.25;;;;;;;;;;1295477;22;20444;-78
2024/02/15 02:09:15;;;;;;;4.22;2.85;;;;;;;;;;1295887;22;20412;-77
2024/02/15 02:09:46;;;;;;;16.30;4.45;;;;;;;;;;1295736;22;20010;-77
2024/02/15 02:10:18;;;;;;;13.02;2.25;;;;;;;;;;1296613;22;19995;-77
2024/02/15 02:10:49;;;;;;;4.95;3.60;;;;;;;;;;1301920;22;20007;-77
2024/02/15 02:11:20;;;;;;;7.15;1.98;;;;;;;;;;1301657;22;20339;-77
2024/02/15 02:11:50;;;;;;;7.47;3.28;;;;;;;;;;1300660;22;20014;-77
2024/02/15 02:12:22;;;;;;;5.93;4.10;;;;;;;;;;1293645;22;20014;-77
2024/02/15 02:12:53;;;;;;;7.10;3.53;;;;;;;;;;1294290;22;20046;-77
2024/02/15 02:13:23;;;;;;;5.65;4.57;;;;;;;;;;1293677;22;20086;-77
2024/02/15 02:13:54;;;;;;;6.97;3.08;;;;;;;;;;1295132;22;20022;-77
2024/02/15 02:14:25;;;;;;;2.08;1.85;;;;;;;;;;1287948;23;20043;-77
2024/02/15 02:14:55;;;;;;;14.00;5.68;;;;;;;;;;1287774;23;20055;-77
2024/02/15 02:15:26;;;;;;;3.80;2.70;;;;;;;;;;1287781;22;20004;-77
2024/02/15 02:15:56;;;;;;;1.60;1.50;;;;;;;;;;1289233;22;20095;-77
2024/02/15 02:16:33;;;;;;;4.55;3.13;;;;;;;;;;1295616;22;20140;-77
2024/02/15 02:17:15;;;;;;;7.80;5.10;;;;;;;;;;1295293;22;20338;-77
2024/02/15 02:17:50;;;;;;;2.70;2.20;;;;;;;;;;1298170;22;20332;-77
2024/02/15 02:18:21;;;;;;;1.50;1.40;;;;;;;;;;1303159;22;20574;-78
2024/02/15 02:18:51;;;;;;;12.90;7.63;;;;;;;;;;1302562;22;20006;-77
2024/02/15 02:19:22;;;;;;;4.85;1.60;;;;;;;;;;1302526;22;20014;-78
2024/02/15 02:19:52;;;;;;;2.83;2.63;;;;;;;;;;1292880;22;20447;-77
2024/02/15 02:20:23;;;;;;;2.58;1.88;;;;;;;;;;1294725;22;20061;-77
2024/02/15 02:20:54;;;;;;;4.38;2.13;;;;;;;;;;1289127;23;20010;-77
2024/02/15 02:21:28;;;;;;;3.85;2.35;;;;;;;;;;1282004;23;20016;-77
2024/02/15 02:21:58;;;;;;;7.20;3.85;;;;;;;;;;1286685;23;20436;-77
2024/02/15 02:22:32;;;;;;;11.45;2.55;;;;;;;;;;1288240;22;20342;-77
2024/02/15 02:23:13;;;;;;;41.83;3.00;;;;;;;;;;1294012;22;20086;-77
2024/02/15 02:23:49;;;;;;;4.65;2.80;;;;;;;;;;1300640;22;20053;-77
2024/02/15 02:24:23;;;;;;;4.65;4.25;;;;;;;;;;1295065;22;20504;-77
2024/02/15 02:24:58;;;;;;;13.52;5.45;;;;;;;;;;1288725;23;20011;-77
2024/02/15 02:25:29;;;;;;;6.03;4.65;;;;;;;;;;1283038;23;20004;-77
2024/02/15 02:25:59;;;;;;;8.93;5.97;;;;;;;;;;1283885;23;20103;-78
2024/02/15 02:26:30;;;;;;;10.10;6.30;;;;;;;;;;1289753;22;20015;-77
2024/02/15 02:27:01;;;;;;;7.32;5.68;;;;;;;;;;1288450;22;20057;-77
2024/02/15 02:27:35;;;;;;;15.35;8.02;;;;;;;;;;1294545;22;20054;-77
2024/02/15 02:28:06;;;;;;;13.25;7.03;;;;;;;;;;1295219;22;20004;-77
2024/02/15 02:28:37;;;;;;;25.95;8.23;;;;;;;;;;1294900;22;20085;-78
2024/02/15 02:29:07;;;;;;;16.83;6.65;;;;;;;;;;1289285;23;20424;-78
2024/02/15 02:29:45;;;;;;;18.80;5.25;;;;;;;;;;1281728;23;20012;-78
2024/02/15 02:30:18;;;;;;;18.58;8.02;;;;;;;;;;1284015;23;20008;-77
2024/02/15 02:30:49;;;;;;;27.52;10.13;;;;;;;;;;1290640;22;20027;-77
2024/02/15 02:31:20;;;;;;;14.77;6.45;;;;;;;;;;1291202;22;20003;-77
2024/02/15 02:31:50;;;;;;;19.92;10.02;;;;;;;;;;1288230;23;20015;-78
2024/02/15 02:32:21;;;;;;;19.55;8.48;;;;;;;;;;1287809;22;20046;-77
2024/02/15 02:32:51;;;;;;;31.83;8.73;;;;;;;;;;1288086;22;20031;-77
2024/02/15 02:33:24;;;;;;;5.07;2.78;;;;;;;;;;1294603;22;20008;-77
2024/02/15 02:33:54;;;;;;;7.07;4.03;;;;;;;;;;1288083;22;20721;-78
2024/02/15 02:34:25;;;;;;;2.13;2.03;;;;;;;;;;1294662;22;20004;-77
2024/02/15 02:34:57;;;;;;;7.03;5.30;;;;;;;;;;1294539;22;20014;-77
2024/02/15 02:35:30;;;;;;;5.32;3.22;;;;;;;;;;1288115;22;20008;-77
2024/02/15 02:36:01;;;;;;;9.10;5.40;;;;;;;;;;1288813;23;20007;-78
2024/02/15 02:36:31;;;;;;;3.53;3.10;;;;;;;;;;1288106;23;20767;-78
2024/02/15 02:37:05;;;;;;;10.48;4.93;;;;;;;;;;1288703;22;20090;-78
2024/02/15 02:37:36;;;;;;;7.20;1.95;;;;;;;;;;1288418;23;20000;-78
2024/02/15 02:38:07;;;;;;;9.80;4.82;;;;;;;;;;1288447;23;20099;-78
2024/02/15 02:38:37;;;;;;;9.00;7.18;;;;;;;;;;1288843;22;20008;-77
2024/02/15 02:39:08;;;;;;;3.78;2.55;;;;;;;;;;1285937;22;20015;-77
2024/02/15 02:39:38;;;;;;;10.32;4.90;;;;;;;;;;1286204;23;20031;-77
2024/02/15 02:40:09;;;;;;;9.73;7.03;;;;;;;;;;1282405;23;20005;-77
2024/02/15 02:40:41;;;;;;;12.73;4.43;;;;;;;;;;1282246;23;20147;-77
2024/02/15 02:41:14;;;;;;;7.00;4.68;;;;;;;;;;1288539;22;20384;-77
2024/02/15 02:41:44;;;;;;;3.05;2.85;;;;;;;;;;1294117;22;20031;-77
2024/02/15 02:42:15;;;;;;;12.55;6.40;;;;;;;;;;1299333;22;20419;-77
2024/02/15 02:42:48;;;;;;;3.20;2.72;;;;;;;;;;1301496;22;20003;-78
2024/02/15 02:43:19;;;;;;;14.30;5.72;;;;;;;;;;1294281;22;20114;-78
2024/02/15 02:43:49;;;;;;;45.35;7.28;;;;;;;;;;1286124;23;20019;-77
2024/02/15 02:44:20;;;;;;;2.83;1.08;;;;;;;;;;1287941;23;20315;-78
2024/02/15 02:44:50;;;;;;;5.50;2.42;;;;;;;;;;1287428;23;20091;-77
2024/02/15 02:45:22;;;;;;;2.70;2.05;;;;;;;;;;1288436;22;20718;-77
2024/02/15 02:45:52;;;;;;;4.43;3.97;;;;;;;;;;1293418;22;20051;-78
2024/02/15 02:46:23;;;;;;;9.80;3.95;;;;;;;;;;1300969;22;20072;-76
2024/02/15 02:46:54;;;;;;;6.20;3.08;;;;;;;;;;1293095;22;20161;-76
2024/02/15 02:47:24;;;;;;;10.77;2.17;;;;;;;;;;1292883;22;20449;-76
2024/02/15 02:47:55;;;;;;;4.53;3.17;;;;;;;;;;1293139;22;20654;-77
2024/02/15 02:48:27;;;;;;;5.32;2.88;;;;;;;;;;1287413;22;20016;-76
2024/02/15 02:48:57;;;;;;;3.22;2.10;;;;;;;;;;1292854;22;20600;-76
2024/02/15 02:49:28;;;;;;;13.18;3.03;;;;;;;;;;1284854;23;20008;-76
2024/02/15 02:49:58;;;;;;;1.58;1.15;;;;;;;;;;1287762;22;20040;-77
2024/02/15 02:50:29;;;;;;;2.72;2.42;;;;;;;;;;1293474;22;20448;-77
2024/02/15 02:50:59;;;;;;;11.23;4.53;;;;;;;;;;1288320;22;20008;-77
2024/02/15 02:51:29;;;;;;;4.22;3.00;;;;;;;;;;1292164;22;20054;-76
2024/02/15 02:52:00;;;;;;;2.95;2.33;;;;;;;;;;1293631;22;20015;-77
2024/02/15 02:52:31;;;;;;;2.25;1.58;;;;;;;;;;1293333;22;20004;-76
2024/02/15 02:53:01;;;;;;;6.07;3.75;;;;;;;;;;1299075;22;20068;-77
2024/02/15 02:53:32;;;;;;;6.65;5.28;;;;;;;;;;1299427;22;20003;-77
2024/02/15 02:54:06;;;;;;;3.42;2.75;;;;;;;;;;1301070;22;20007;-77
2024/02/15 02:54:36;;;;;;;1.23;1.13;;;;;;;;;;1293430;22;20014;-77
2024/02/15 02:55:11;;;;;;;6.93;4.75;;;;;;;;;;1293609;22;20451;-76
2024/02/15 02:55:42;;;;;;;2.58;2.40;;;;;;;;;;1293327;22;20086;-76
2024/02/15 02:56:16;;;;;;;3.20;2.85;;;;;;;;;;1294523;22;20014;-77
2024/02/15 02:56:46;;;;;;;1.48;1.25;;;;;;;;;;1294426;22;20019;-77
2024/02/15 02:57:18;;;;;;;7.93;3.40;;;;;;;;;;1261940;23;20004;-76
2024/02/15 02:57:49;;;;;;;1.20;1.10;;;;;;;;;;1280782;23;20401;-76
2024/02/15 02:58:20;;;;;;;4.00;2.45;;;;;;;;;;1281215;23;20005;-77
2024/02/15 02:58:52;;;;;;;9.55;4.13;;;;;;;;;;1281153;23;20028;-77
2024/02/15 02:59:22;;;;;;;1.63;1.13;;;;;;;;;;1286644;22;20004;-77
2024/02/15 02:59:53;;;;;;;0.68;0.68;;;;;;;;;;1292820;22;20003;-77
2024/02/15 03:00:23;;;;;;;4.85;4.28;;;;;;;;;;1288164;22;20011;-78
2024/02/15 03:00:54;;;;;;;4.97;1.70;;;;;;;;;;1293866;22;20015;-77
2024/02/15 03:01:27;;;;;;;0.73;0.73;;;;;;;;;;1287537;23;20098;-77
2024/02/15 03:01:58;;;;;;;2.00;1.80;;;;;;;;;;1281444;23;20106;-77
2024/02/15 03:02:29;;;;;;;1.35;1.33;;;;;;;;;;1278076;23;20008;-78
2024/02/15 03:03:00;;;;;;;2.05;1.42;;;;;;;;;;1279760;23;20004;-77
2024/02/15 03:03:30;;;;;;;3.03;1.38;;;;;;;;;;1287427;22;20004;-77
2024/02/15 03:04:01;;;;;;;2.97;2.75;;;;;;;;;;1293783;22;20014;-77
2024/02/15 03:04:32;;;;;;;3.47;3.20;;;;;;;;;;1292154;22;20492;-77
2024/02/15 03:05:04;;;;;;;6.15;4.40;;;;;;;;;;1293108;22;20043;-77
2024/02/15 03:05:34;;;;;;;9.30;3.90;;;;;;;;;;1294885;22;20027;-78
2024/02/15 03:06:06;;;;;;;1.42;1.33;;;;;;;;;;1293610;22;20407;-76